sensor_id;sensor_type;location;lat;lon;timestamp;P1;durP1;ratioP1;P2;durP2;ratioP2
14191;SDS011;7177;48.572;7.838;2022-09-21T00:00:35;9.37;;;5.27;;
14191;SDS011;7177;48.572;7.838;2022-09-21T00:03:02;9.03;;;5.10;;
14191;SDS011;7177;48.572;7.838;2022-09-21T00:05:28;7.50;;;5.67;;
14191;SDS011;7177;48.572;7.838;2022-09-21T00:07:53;9.00;;;5.47;;
14191;SDS011;7177;48.572;7.838;2022-09-21T00:10:19;9.10;;;5.80;;
14191;SDS011;7177;48.572;7.838;2022-09-21T00:12:45;9.93;;;6.27;;
14191;SDS011;7177;48.572;7.838;2022-09-21T00:15:13;9.43;;;6.80;;
14191;SDS011;7177;48.572;7.838;2022-09-21T00:17:41;8.63;;;6.67;;
14191;SDS011;7177;48.572;7.838;2022-09-21T00:20:07;7.57;;;5.80;;
14191;SDS011;7177;48.572;7.838;2022-09-21T00:22:33;5.97;;;5.10;;
14191;SDS011;7177;48.572;7.838;2022-09-21T00:24:59;5.87;;;4.73;;
14191;SDS011;7177;48.572;7.838;2022-09-21T00:27:27;7.60;;;5.60;;
14191;SDS011;7177;48.572;7.838;2022-09-21T00:29:57;8.10;;;5.43;;
14191;SDS011;7177;48.572;7.838;2022-09-21T00:32:25;8.23;;;5.47;;
14191;SDS011;7177;48.572;7.838;2022-09-21T00:34:50;7.57;;;5.37;;
14191;SDS011;7177;48.572;7.838;2022-09-21T00:37:17;6.33;;;5.07;;
14191;SDS011;7177;48.572;7.838;2022-09-21T00:39:43;6.37;;;4.80;;
14191;SDS011;7177;48.572;7.838;2022-09-21T00:42:13;8.87;;;5.60;;
14191;SDS011;7177;48.572;7.838;2022-09-21T00:44:42;7.33;;;5.47;;
14191;SDS011;7177;48.572;7.838;2022-09-21T00:47:09;9.97;;;5.50;;
14191;SDS011;7177;48.572;7.838;2022-09-21T00:49:37;6.83;;;5.30;;
14191;SDS011;7177;48.572;7.838;2022-09-21T00:52:04;7.13;;;4.90;;
14191;SDS011;7177;48.572;7.838;2022-09-21T00:54:33;5.83;;;3.97;;
14191;SDS011;7177;48.572;7.838;2022-09-21T00:57:21;5.57;;;4.40;;
14191;SDS011;7177;48.572;7.838;2022-09-21T00:59:50;5.60;;;4.47;;
14191;SDS011;7177;48.572;7.838;2022-09-21T01:02:18;6.97;;;4.10;;
14191;SDS011;7177;48.572;7.838;2022-09-21T01:04:44;8.27;;;5.90;;
14191;SDS011;7177;48.572;7.838;2022-09-21T01:07:12;6.27;;;4.73;;
14191;SDS011;7177;48.572;7.838;2022-09-21T01:09:42;7.73;;;4.30;;
14191;SDS011;7177;48.572;7.838;2022-09-21T01:12:17;13.10;;;4.97;;
14191;SDS011;7177;48.572;7.838;2022-09-21T01:17:29;5.43;;;4.53;;
14191;SDS011;7177;48.572;7.838;2022-09-21T01:26:09;5.90;;;4.60;;
14191;SDS011;7177;48.572;7.838;2022-09-21T01:31:22;8.40;;;5.27;;
14191;SDS011;7177;48.572;7.838;2022-09-21T01:33:52;5.20;;;4.70;;
14191;SDS011;7177;48.572;7.838;2022-09-21T01:36:23;5.60;;;5.00;;
14191;SDS011;7177;48.572;7.838;2022-09-21T01:38:53;8.23;;;4.87;;
14191;SDS011;7177;48.572;7.838;2022-09-21T01:41:22;9.00;;;5.30;;
14191;SDS011;7177;48.572;7.838;2022-09-21T01:43:52;6.73;;;4.50;;
14191;SDS011;7177;48.572;7.838;2022-09-21T01:46:21;7.60;;;5.37;;
14191;SDS011;7177;48.572;7.838;2022-09-21T01:48:52;5.63;;;5.00;;
14191;SDS011;7177;48.572;7.838;2022-09-21T01:51:20;6.60;;;4.80;;
14191;SDS011;7177;48.572;7.838;2022-09-21T01:56:41;6.73;;;4.50;;
14191;SDS011;7177;48.572;7.838;2022-09-21T01:59:21;5.53;;;4.70;;
14191;SDS011;7177;48.572;7.838;2022-09-21T02:01:56;6.77;;;5.07;;
14191;SDS011;7177;48.572;7.838;2022-09-21T02:04:24;7.37;;;5.03;;
14191;SDS011;7177;48.572;7.838;2022-09-21T02:06:51;9.10;;;5.50;;
14191;SDS011;7177;48.572;7.838;2022-09-21T02:09:17;6.43;;;4.80;;
14191;SDS011;7177;48.572;7.838;2022-09-21T02:11:43;5.43;;;4.33;;
14191;SDS011;7177;48.572;7.838;2022-09-21T02:14:10;6.23;;;5.27;;
14191;SDS011;7177;48.572;7.838;2022-09-21T02:16:42;5.50;;;4.47;;
14191;SDS011;7177;48.572;7.838;2022-09-21T02:20:04;6.83;;;5.27;;
14191;SDS011;7177;48.572;7.838;2022-09-21T02:22:14;5.10;;;4.37;;
14191;SDS011;7177;48.572;7.838;2022-09-21T02:24:53;4.80;;;4.07;;
14191;SDS011;7177;48.572;7.838;2022-09-21T02:27:27;4.80;;;4.30;;
14191;SDS011;7177;48.572;7.838;2022-09-21T02:30:17;7.43;;;5.47;;
14191;SDS011;7177;48.572;7.838;2022-09-21T02:35:29;6.40;;;4.80;;
14191;SDS011;7177;48.572;7.838;2022-09-21T02:38:09;5.53;;;4.53;;
14191;SDS011;7177;48.572;7.838;2022-09-21T02:40:50;6.77;;;4.73;;
14191;SDS011;7177;48.572;7.838;2022-09-21T02:43:22;5.07;;;3.97;;
14191;SDS011;7177;48.572;7.838;2022-09-21T02:45:59;7.77;;;4.30;;
14191;SDS011;7177;48.572;7.838;2022-09-21T02:48:39;4.93;;;4.17;;
14191;SDS011;7177;48.572;7.838;2022-09-21T02:51:19;4.23;;;3.47;;
14191;SDS011;7177;48.572;7.838;2022-09-21T02:53:49;4.77;;;4.07;;
14191;SDS011;7177;48.572;7.838;2022-09-21T02:56:17;5.83;;;4.73;;
14191;SDS011;7177;48.572;7.838;2022-09-21T02:58:45;5.77;;;4.80;;
14191;SDS011;7177;48.572;7.838;2022-09-21T03:01:14;7.50;;;4.80;;
14191;SDS011;7177;48.572;7.838;2022-09-21T03:03:42;6.93;;;4.87;;
14191;SDS011;7177;48.572;7.838;2022-09-21T03:06:08;6.77;;;5.17;;
14191;SDS011;7177;48.572;7.838;2022-09-21T03:08:34;7.03;;;5.13;;
14191;SDS011;7177;48.572;7.838;2022-09-21T03:10:59;5.13;;;4.63;;
14191;SDS011;7177;48.572;7.838;2022-09-21T03:13:25;5.30;;;4.80;;
14191;SDS011;7177;48.572;7.838;2022-09-21T03:15:57;7.90;;;5.53;;
14191;SDS011;7177;48.572;7.838;2022-09-21T03:18:24;5.60;;;5.10;;
14191;SDS011;7177;48.572;7.838;2022-09-21T03:20:50;6.53;;;5.13;;
14191;SDS011;7177;48.572;7.838;2022-09-21T03:23:16;6.47;;;5.87;;
14191;SDS011;7177;48.572;7.838;2022-09-21T03:25:44;7.63;;;6.80;;
14191;SDS011;7177;48.572;7.838;2022-09-21T03:28:11;6.30;;;5.70;;
14191;SDS011;7177;48.572;7.838;2022-09-21T03:30:37;7.40;;;6.57;;
14191;SDS011;7177;48.572;7.838;2022-09-21T03:33:03;11.40;;;7.47;;
14191;SDS011;7177;48.572;7.838;2022-09-21T03:35:30;9.03;;;7.47;;
14191;SDS011;7177;48.572;7.838;2022-09-21T03:37:58;10.20;;;8.17;;
14191;SDS011;7177;48.572;7.838;2022-09-21T03:40:24;11.87;;;9.03;;
14191;SDS011;7177;48.572;7.838;2022-09-21T03:42:51;10.33;;;7.40;;
14191;SDS011;7177;48.572;7.838;2022-09-21T03:45:17;7.50;;;6.80;;
14191;SDS011;7177;48.572;7.838;2022-09-21T03:47:44;12.47;;;7.00;;
14191;SDS011;7177;48.572;7.838;2022-09-21T03:50:10;14.53;;;7.47;;
14191;SDS011;7177;48.572;7.838;2022-09-21T03:52:36;8.00;;;7.10;;
14191;SDS011;7177;48.572;7.838;2022-09-21T03:55:03;6.93;;;6.00;;
14191;SDS011;7177;48.572;7.838;2022-09-21T03:57:30;9.00;;;6.83;;
14191;SDS011;7177;48.572;7.838;2022-09-21T03:59:56;7.33;;;6.40;;
14191;SDS011;7177;48.572;7.838;2022-09-21T04:02:22;6.87;;;5.30;;
14191;SDS011;7177;48.572;7.838;2022-09-21T04:04:47;7.43;;;6.33;;
14191;SDS011;7177;48.572;7.838;2022-09-21T04:07:13;6.90;;;6.20;;
14191;SDS011;7177;48.572;7.838;2022-09-21T04:09:39;6.33;;;5.73;;
14191;SDS011;7177;48.572;7.838;2022-09-21T04:12:05;7.00;;;5.67;;
14191;SDS011;7177;48.572;7.838;2022-09-21T04:14:31;6.63;;;5.40;;
14191;SDS011;7177;48.572;7.838;2022-09-21T04:16:57;7.50;;;6.70;;
14191;SDS011;7177;48.572;7.838;2022-09-21T04:19:23;9.57;;;7.03;;
14191;SDS011;7177;48.572;7.838;2022-09-21T04:21:49;6.97;;;6.27;;
14191;SDS011;7177;48.572;7.838;2022-09-21T04:24:17;6.37;;;5.77;;
14191;SDS011;7177;48.572;7.838;2022-09-21T04:26:43;9.63;;;6.27;;
14191;SDS011;7177;48.572;7.838;2022-09-21T04:29:10;6.77;;;6.07;;
14191;SDS011;7177;48.572;7.838;2022-09-21T04:31:37;8.60;;;5.73;;
14191;SDS011;7177;48.572;7.838;2022-09-21T04:34:02;7.13;;;6.43;;
14191;SDS011;7177;48.572;7.838;2022-09-21T04:36:28;5.93;;;5.33;;
14191;SDS011;7177;48.572;7.838;2022-09-21T04:38:56;8.83;;;6.50;;
14191;SDS011;7177;48.572;7.838;2022-09-21T04:41:24;7.47;;;5.87;;
14191;SDS011;7177;48.572;7.838;2022-09-21T04:43:49;10.90;;;6.30;;
14191;SDS011;7177;48.572;7.838;2022-09-21T04:46:16;17.17;;;7.73;;
14191;SDS011;7177;48.572;7.838;2022-09-21T04:48:43;5.73;;;5.23;;
14191;SDS011;7177;48.572;7.838;2022-09-21T04:51:10;7.07;;;6.37;;
14191;SDS011;7177;48.572;7.838;2022-09-21T04:53:37;6.73;;;6.13;;
14191;SDS011;7177;48.572;7.838;2022-09-21T04:56:05;6.80;;;6.20;;
14191;SDS011;7177;48.572;7.838;2022-09-21T04:58:32;6.00;;;5.40;;
14191;SDS011;7177;48.572;7.838;2022-09-21T05:00:58;6.47;;;5.83;;
14191;SDS011;7177;48.572;7.838;2022-09-21T05:03:24;5.63;;;5.13;;
14191;SDS011;7177;48.572;7.838;2022-09-21T05:05:51;6.60;;;5.90;;
14191;SDS011;7177;48.572;7.838;2022-09-21T05:08:21;7.70;;;6.87;;
14191;SDS011;7177;48.572;7.838;2022-09-21T05:11:06;6.87;;;5.40;;
14191;SDS011;7177;48.572;7.838;2022-09-21T05:13:33;8.83;;;6.77;;
14191;SDS011;7177;48.572;7.838;2022-09-21T05:15:59;8.63;;;5.93;;
14191;SDS011;7177;48.572;7.838;2022-09-21T05:18:25;8.03;;;6.57;;
14191;SDS011;7177;48.572;7.838;2022-09-21T05:20:54;15.93;;;9.10;;
14191;SDS011;7177;48.572;7.838;2022-09-21T05:23:24;12.17;;;9.73;;
14191;SDS011;7177;48.572;7.838;2022-09-21T05:25:50;18.47;;;9.73;;
14191;SDS011;7177;48.572;7.838;2022-09-21T05:28:16;11.33;;;8.57;;
14191;SDS011;7177;48.572;7.838;2022-09-21T05:30:43;11.77;;;9.40;;
14191;SDS011;7177;48.572;7.838;2022-09-21T05:33:13;11.20;;;9.13;;
14191;SDS011;7177;48.572;7.838;2022-09-21T05:38:36;9.63;;;8.63;;
14191;SDS011;7177;48.572;7.838;2022-09-21T05:41:02;9.33;;;8.33;;
14191;SDS011;7177;48.572;7.838;2022-09-21T05:43:28;14.13;;;9.83;;
14191;SDS011;7177;48.572;7.838;2022-09-21T05:45:59;13.17;;;10.50;;
14191;SDS011;7177;48.572;7.838;2022-09-21T05:48:35;19.27;;;10.13;;
14191;SDS011;7177;48.572;7.838;2022-09-21T05:53:56;24.43;;;9.47;;
14191;SDS011;7177;48.572;7.838;2022-09-21T05:59:25;21.07;;;8.73;;
14191;SDS011;7177;48.572;7.838;2022-09-21T06:02:07;12.03;;;9.30;;
14191;SDS011;7177;48.572;7.838;2022-09-21T06:04:55;14.20;;;9.20;;
14191;SDS011;7177;48.572;7.838;2022-09-21T06:07:23;15.03;;;8.53;;
14191;SDS011;7177;48.572;7.838;2022-09-21T06:09:49;23.73;;;9.37;;
14191;SDS011;7177;48.572;7.838;2022-09-21T06:12:14;11.77;;;9.33;;
14191;SDS011;7177;48.572;7.838;2022-09-21T06:14:40;11.27;;;8.77;;
14191;SDS011;7177;48.572;7.838;2022-09-21T06:17:05;25.47;;;10.07;;
14191;SDS011;7177;48.572;7.838;2022-09-21T06:19:32;10.87;;;9.33;;
14191;SDS011;7177;48.572;7.838;2022-09-21T06:21:57;13.10;;;9.50;;
14191;SDS011;7177;48.572;7.838;2022-09-21T06:24:23;25.80;;;10.80;;
14191;SDS011;7177;48.572;7.838;2022-09-21T06:26:48;21.10;;;11.13;;
14191;SDS011;7177;48.572;7.838;2022-09-21T06:29:14;21.13;;;10.87;;
14191;SDS011;7177;48.572;7.838;2022-09-21T06:31:39;28.90;;;11.60;;
14191;SDS011;7177;48.572;7.838;2022-09-21T06:34:05;18.90;;;10.77;;
14191;SDS011;7177;48.572;7.838;2022-09-21T06:36:30;17.20;;;12.07;;
14191;SDS011;7177;48.572;7.838;2022-09-21T06:38:56;24.17;;;11.17;;
14191;SDS011;7177;48.572;7.838;2022-09-21T06:41:21;15.67;;;10.83;;
14191;SDS011;7177;48.572;7.838;2022-09-21T06:43:47;16.70;;;11.13;;
14191;SDS011;7177;48.572;7.838;2022-09-21T06:46:12;17.80;;;12.77;;
14191;SDS011;7177;48.572;7.838;2022-09-21T06:48:38;38.07;;;24.23;;
14191;SDS011;7177;48.572;7.838;2022-09-21T06:51:04;15.83;;;11.73;;
14191;SDS011;7177;48.572;7.838;2022-09-21T06:53:30;14.83;;;11.07;;
14191;SDS011;7177;48.572;7.838;2022-09-21T06:56:05;16.10;;;11.47;;
14191;SDS011;7177;48.572;7.838;2022-09-21T06:58:32;14.10;;;9.50;;
14191;SDS011;7177;48.572;7.838;2022-09-21T07:01:03;9.73;;;7.80;;
14191;SDS011;7177;48.572;7.838;2022-09-21T07:03:32;11.60;;;9.33;;
14191;SDS011;7177;48.572;7.838;2022-09-21T07:05:58;10.77;;;8.90;;
14191;SDS011;7177;48.572;7.838;2022-09-21T07:08:23;11.40;;;8.10;;
14191;SDS011;7177;48.572;7.838;2022-09-21T07:10:51;11.13;;;8.50;;
14191;SDS011;7177;48.572;7.838;2022-09-21T07:13:16;11.43;;;8.63;;
14191;SDS011;7177;48.572;7.838;2022-09-21T07:15:42;10.50;;;8.10;;
14191;SDS011;7177;48.572;7.838;2022-09-21T07:18:11;11.27;;;8.37;;
14191;SDS011;7177;48.572;7.838;2022-09-21T07:20:38;15.80;;;9.43;;
14191;SDS011;7177;48.572;7.838;2022-09-21T07:23:08;13.37;;;8.67;;
14191;SDS011;7177;48.572;7.838;2022-09-21T07:25:35;14.90;;;10.17;;
14191;SDS011;7177;48.572;7.838;2022-09-21T07:28:00;12.87;;;8.80;;
14191;SDS011;7177;48.572;7.838;2022-09-21T07:30:26;11.57;;;9.20;;
14191;SDS011;7177;48.572;7.838;2022-09-21T07:32:51;12.70;;;9.73;;
14191;SDS011;7177;48.572;7.838;2022-09-21T07:35:17;13.07;;;9.63;;
14191;SDS011;7177;48.572;7.838;2022-09-21T07:37:43;11.93;;;8.87;;
14191;SDS011;7177;48.572;7.838;2022-09-21T07:40:09;10.60;;;8.73;;
14191;SDS011;7177;48.572;7.838;2022-09-21T07:42:34;10.93;;;8.43;;
14191;SDS011;7177;48.572;7.838;2022-09-21T07:45:00;11.07;;;7.60;;
14191;SDS011;7177;48.572;7.838;2022-09-21T07:47:26;11.33;;;8.83;;
14191;SDS011;7177;48.572;7.838;2022-09-21T07:49:52;11.13;;;7.87;;
14191;SDS011;7177;48.572;7.838;2022-09-21T07:52:18;10.90;;;6.83;;
14191;SDS011;7177;48.572;7.838;2022-09-21T07:54:43;12.03;;;7.23;;
14191;SDS011;7177;48.572;7.838;2022-09-21T07:57:09;10.23;;;7.40;;
14191;SDS011;7177;48.572;7.838;2022-09-21T07:59:53;9.13;;;6.63;;
14191;SDS011;7177;48.572;7.838;2022-09-21T08:02:22;10.57;;;6.77;;
14191;SDS011;7177;48.572;7.838;2022-09-21T08:04:48;8.83;;;5.90;;
14191;SDS011;7177;48.572;7.838;2022-09-21T08:07:14;9.97;;;6.20;;
14191;SDS011;7177;48.572;7.838;2022-09-21T08:09:39;10.03;;;6.63;;
14191;SDS011;7177;48.572;7.838;2022-09-21T08:12:05;8.73;;;5.97;;
14191;SDS011;7177;48.572;7.838;2022-09-21T08:14:32;8.50;;;6.03;;
14191;SDS011;7177;48.572;7.838;2022-09-21T08:16:59;11.77;;;6.77;;
14191;SDS011;7177;48.572;7.838;2022-09-21T08:19:25;8.57;;;6.57;;
14191;SDS011;7177;48.572;7.838;2022-09-21T08:21:51;8.40;;;6.27;;
14191;SDS011;7177;48.572;7.838;2022-09-21T08:24:17;7.77;;;5.87;;
14191;SDS011;7177;48.572;7.838;2022-09-21T08:26:43;10.03;;;6.17;;
14191;SDS011;7177;48.572;7.838;2022-09-21T08:29:10;6.77;;;5.50;;
14191;SDS011;7177;48.572;7.838;2022-09-21T08:31:37;10.93;;;5.70;;
14191;SDS011;7177;48.572;7.838;2022-09-21T08:34:03;11.07;;;5.63;;
14191;SDS011;7177;48.572;7.838;2022-09-21T08:36:29;10.67;;;5.23;;
14191;SDS011;7177;48.572;7.838;2022-09-21T08:38:54;8.43;;;5.80;;
14191;SDS011;7177;48.572;7.838;2022-09-21T08:44:14;11.97;;;5.67;;
14191;SDS011;7177;48.572;7.838;2022-09-21T08:46:43;6.47;;;4.57;;
14191;SDS011;7177;48.572;7.838;2022-09-21T08:49:19;8.17;;;4.93;;
14191;SDS011;7177;48.572;7.838;2022-09-21T08:51:51;5.37;;;4.73;;
14191;SDS011;7177;48.572;7.838;2022-09-21T08:54:27;11.93;;;5.20;;
14191;SDS011;7177;48.572;7.838;2022-09-21T08:56:58;6.77;;;4.40;;
14191;SDS011;7177;48.572;7.838;2022-09-21T08:59:24;8.13;;;4.57;;
14191;SDS011;7177;48.572;7.838;2022-09-21T09:01:57;7.33;;;4.33;;
14191;SDS011;7177;48.572;7.838;2022-09-21T09:07:44;6.47;;;4.40;;
14191;SDS011;7177;48.572;7.838;2022-09-21T09:16:04;9.03;;;3.37;;
14191;SDS011;7177;48.572;7.838;2022-09-21T09:18:50;6.03;;;3.67;;
14191;SDS011;7177;48.572;7.838;2022-09-21T09:21:25;8.17;;;3.73;;
14191;SDS011;7177;48.572;7.838;2022-09-21T09:26:48;4.33;;;3.13;;
14191;SDS011;7177;48.572;7.838;2022-09-21T09:29:21;5.93;;;3.60;;
14191;SDS011;7177;48.572;7.838;2022-09-21T09:31:55;11.17;;;4.33;;
14191;SDS011;7177;48.572;7.838;2022-09-21T09:34:27;8.37;;;3.63;;
14191;SDS011;7177;48.572;7.838;2022-09-21T09:37:00;5.80;;;3.30;;
14191;SDS011;7177;48.572;7.838;2022-09-21T09:39:34;5.10;;;3.10;;
14191;SDS011;7177;48.572;7.838;2022-09-21T09:50:47;4.83;;;3.60;;
14191;SDS011;7177;48.572;7.838;2022-09-21T09:53:16;6.77;;;2.60;;
14191;SDS011;7177;48.572;7.838;2022-09-21T09:55:45;7.03;;;3.37;;
14191;SDS011;7177;48.572;7.838;2022-09-21T09:58:16;9.47;;;3.73;;
14191;SDS011;7177;48.572;7.838;2022-09-21T10:00:54;6.43;;;2.80;;
14191;SDS011;7177;48.572;7.838;2022-09-21T10:03:24;5.20;;;2.80;;
14191;SDS011;7177;48.572;7.838;2022-09-21T10:05:50;8.50;;;3.47;;
14191;SDS011;7177;48.572;7.838;2022-09-21T10:08:26;7.70;;;3.10;;
14191;SDS011;7177;48.572;7.838;2022-09-21T10:10:53;6.40;;;2.90;;
14191;SDS011;7177;48.572;7.838;2022-09-21T10:13:35;8.60;;;2.73;;
14191;SDS011;7177;48.572;7.838;2022-09-21T10:16:05;4.57;;;2.40;;
14191;SDS011;7177;48.572;7.838;2022-09-21T10:18:37;5.30;;;2.10;;
14191;SDS011;7177;48.572;7.838;2022-09-21T10:23:45;5.30;;;2.43;;
14191;SDS011;7177;48.572;7.838;2022-09-21T10:26:13;5.60;;;2.20;;
14191;SDS011;7177;48.572;7.838;2022-09-21T10:31:24;3.77;;;2.27;;
14191;SDS011;7177;48.572;7.838;2022-09-21T10:36:34;5.30;;;1.87;;
14191;SDS011;7177;48.572;7.838;2022-09-21T10:39:21;3.13;;;1.90;;
14191;SDS011;7177;48.572;7.838;2022-09-21T10:44:37;3.47;;;2.00;;
14191;SDS011;7177;48.572;7.838;2022-09-21T10:47:15;3.80;;;2.13;;
14191;SDS011;7177;48.572;7.838;2022-09-21T10:50:00;3.03;;;2.00;;
14191;SDS011;7177;48.572;7.838;2022-09-21T10:52:32;7.67;;;4.13;;
14191;SDS011;7177;48.572;7.838;2022-09-21T10:55:00;28.53;;;10.60;;
14191;SDS011;7177;48.572;7.838;2022-09-21T10:57:26;8.70;;;4.43;;
14191;SDS011;7177;48.572;7.838;2022-09-21T10:59:52;12.50;;;4.60;;
14191;SDS011;7177;48.572;7.838;2022-09-21T11:02:32;7.93;;;3.20;;
14191;SDS011;7177;48.572;7.838;2022-09-21T11:10:23;3.77;;;2.30;;
14191;SDS011;7177;48.572;7.838;2022-09-21T11:13:19;6.27;;;2.53;;
14191;SDS011;7177;48.572;7.838;2022-09-21T11:26:40;4.40;;;2.20;;
14191;SDS011;7177;48.572;7.838;2022-09-21T11:29:30;2.97;;;1.90;;
14191;SDS011;7177;48.572;7.838;2022-09-21T11:34:51;6.50;;;2.20;;
14191;SDS011;7177;48.572;7.838;2022-09-21T11:37:30;3.30;;;2.10;;
14191;SDS011;7177;48.572;7.838;2022-09-21T11:43:04;3.63;;;1.97;;
14191;SDS011;7177;48.572;7.838;2022-09-21T11:48:34;4.83;;;2.13;;
14191;SDS011;7177;48.572;7.838;2022-09-21T11:59:36;4.57;;;1.93;;
14191;SDS011;7177;48.572;7.838;2022-09-21T12:05:14;5.03;;;2.00;;
14191;SDS011;7177;48.572;7.838;2022-09-21T12:13:38;3.70;;;2.00;;
14191;SDS011;7177;48.572;7.838;2022-09-21T12:16:23;4.07;;;1.90;;
14191;SDS011;7177;48.572;7.838;2022-09-21T12:19:19;3.00;;;1.87;;
14191;SDS011;7177;48.572;7.838;2022-09-21T12:22:14;6.07;;;1.90;;
14191;SDS011;7177;48.572;7.838;2022-09-21T12:24:45;3.57;;;1.70;;
14191;SDS011;7177;48.572;7.838;2022-09-21T12:27:24;5.63;;;2.00;;
14191;SDS011;7177;48.572;7.838;2022-09-21T12:30:18;2.90;;;1.70;;
14191;SDS011;7177;48.572;7.838;2022-09-21T12:35:27;3.57;;;1.70;;
14191;SDS011;7177;48.572;7.838;2022-09-21T12:38:00;2.53;;;1.57;;
14191;SDS011;7177;48.572;7.838;2022-09-21T12:44:15;2.37;;;1.60;;
14191;SDS011;7177;48.572;7.838;2022-09-21T12:46:53;4.53;;;1.30;;
14191;SDS011;7177;48.572;7.838;2022-09-21T12:49:33;7.23;;;1.73;;
14191;SDS011;7177;48.572;7.838;2022-09-21T12:52:05;5.43;;;1.40;;
14191;SDS011;7177;48.572;7.838;2022-09-21T12:54:39;2.83;;;1.70;;
14191;SDS011;7177;48.572;7.838;2022-09-21T12:59:52;4.83;;;1.80;;
14191;SDS011;7177;48.572;7.838;2022-09-21T13:13:21;4.47;;;1.43;;
14191;SDS011;7177;48.572;7.838;2022-09-21T13:15:59;2.30;;;1.20;;
14191;SDS011;7177;48.572;7.838;2022-09-21T13:18:30;4.63;;;1.27;;
14191;SDS011;7177;48.572;7.838;2022-09-21T13:21:01;2.20;;;1.20;;
14191;SDS011;7177;48.572;7.838;2022-09-21T13:23:42;4.03;;;1.47;;
14191;SDS011;7177;48.572;7.838;2022-09-21T13:26:16;2.93;;;1.47;;
14191;SDS011;7177;48.572;7.838;2022-09-21T13:29:03;2.90;;;1.40;;
14191;SDS011;7177;48.572;7.838;2022-09-21T13:47:38;5.77;;;1.23;;
14191;SDS011;7177;48.572;7.838;2022-09-21T13:52:53;1.33;;;1.17;;
14191;SDS011;7177;48.572;7.838;2022-09-21T13:55:30;1.63;;;1.17;;
14191;SDS011;7177;48.572;7.838;2022-09-21T13:57:59;2.10;;;1.17;;
14191;SDS011;7177;48.572;7.838;2022-09-21T14:00:32;2.37;;;1.40;;
14191;SDS011;7177;48.572;7.838;2022-09-21T14:03:03;5.27;;;1.37;;
14191;SDS011;7177;48.572;7.838;2022-09-21T14:05:45;5.47;;;2.70;;
14191;SDS011;7177;48.572;7.838;2022-09-21T14:08:18;2.80;;;2.03;;
14191;SDS011;7177;48.572;7.838;2022-09-21T14:10:54;4.07;;;1.30;;
14191;SDS011;7177;48.572;7.838;2022-09-21T14:18:51;3.00;;;1.63;;
14191;SDS011;7177;48.572;7.838;2022-09-21T14:21:17;1.43;;;1.33;;
14191;SDS011;7177;48.572;7.838;2022-09-21T14:26:35;3.73;;;1.53;;
14191;SDS011;7177;48.572;7.838;2022-09-21T14:29:27;5.93;;;1.40;;
14191;SDS011;7177;48.572;7.838;2022-09-21T14:32:21;1.43;;;1.10;;
14191;SDS011;7177;48.572;7.838;2022-09-21T14:34:57;1.53;;;1.10;;
14191;SDS011;7177;48.572;7.838;2022-09-21T14:40:05;2.60;;;1.30;;
14191;SDS011;7177;48.572;7.838;2022-09-21T14:42:40;3.30;;;1.30;;
14191;SDS011;7177;48.572;7.838;2022-09-21T14:45:09;2.73;;;0.97;;
14191;SDS011;7177;48.572;7.838;2022-09-21T14:50:24;1.30;;;1.00;;
14191;SDS011;7177;48.572;7.838;2022-09-21T15:13:09;1.60;;;1.17;;
14191;SDS011;7177;48.572;7.838;2022-09-21T15:16:03;2.87;;;1.50;;
14191;SDS011;7177;48.572;7.838;2022-09-21T15:18:41;3.77;;;1.17;;
14191;SDS011;7177;48.572;7.838;2022-09-21T15:23:45;15.47;;;3.43;;
14191;SDS011;7177;48.572;7.838;2022-09-21T15:26:21;5.77;;;2.30;;
14191;SDS011;7177;48.572;7.838;2022-09-21T15:28:52;1.67;;;1.37;;
14191;SDS011;7177;48.572;7.838;2022-09-21T15:31:19;6.20;;;1.80;;
14191;SDS011;7177;48.572;7.838;2022-09-21T15:33:45;5.70;;;2.67;;
14191;SDS011;7177;48.572;7.838;2022-09-21T15:36:18;5.77;;;1.60;;
14191;SDS011;7177;48.572;7.838;2022-09-21T15:38:53;3.83;;;2.00;;
14191;SDS011;7177;48.572;7.838;2022-09-21T15:44:14;4.87;;;1.53;;
14191;SDS011;7177;48.572;7.838;2022-09-21T15:46:43;4.47;;;1.90;;
14191;SDS011;7177;48.572;7.838;2022-09-21T15:49:15;2.10;;;1.60;;
14191;SDS011;7177;48.572;7.838;2022-09-21T15:51:46;3.37;;;1.83;;
14191;SDS011;7177;48.572;7.838;2022-09-21T15:54:51;1.70;;;1.37;;
14191;SDS011;7177;48.572;7.838;2022-09-21T16:00:20;4.60;;;1.70;;
14191;SDS011;7177;48.572;7.838;2022-09-21T16:02:54;3.63;;;1.10;;
14191;SDS011;7177;48.572;7.838;2022-09-21T16:05:41;3.97;;;1.60;;
14191;SDS011;7177;48.572;7.838;2022-09-21T16:08:19;3.13;;;1.20;;
14191;SDS011;7177;48.572;7.838;2022-09-21T16:11:09;6.73;;;1.50;;
14191;SDS011;7177;48.572;7.838;2022-09-21T16:13:43;2.47;;;1.27;;
14191;SDS011;7177;48.572;7.838;2022-09-21T16:16:28;3.37;;;1.30;;
14191;SDS011;7177;48.572;7.838;2022-09-21T16:18:55;5.13;;;1.40;;
14191;SDS011;7177;48.572;7.838;2022-09-21T16:21:27;2.37;;;1.30;;
14191;SDS011;7177;48.572;7.838;2022-09-21T16:24:06;1.60;;;1.30;;
14191;SDS011;7177;48.572;7.838;2022-09-21T16:26:48;2.20;;;1.40;;
14191;SDS011;7177;48.572;7.838;2022-09-21T16:29:23;1.60;;;1.20;;
14191;SDS011;7177;48.572;7.838;2022-09-21T16:31:50;3.43;;;1.50;;
14191;SDS011;7177;48.572;7.838;2022-09-21T16:34:38;2.63;;;1.30;;
14191;SDS011;7177;48.572;7.838;2022-09-21T16:37:20;2.90;;;1.20;;
14191;SDS011;7177;48.572;7.838;2022-09-21T16:39:49;2.37;;;1.30;;
14191;SDS011;7177;48.572;7.838;2022-09-21T16:42:15;3.37;;;1.50;;
14191;SDS011;7177;48.572;7.838;2022-09-21T16:44:41;1.97;;;1.20;;
14191;SDS011;7177;48.572;7.838;2022-09-21T16:47:19;4.00;;;1.30;;
14191;SDS011;7177;48.572;7.838;2022-09-21T16:49:49;2.83;;;1.50;;
14191;SDS011;7177;48.572;7.838;2022-09-21T16:52:19;2.30;;;1.33;;
14191;SDS011;7177;48.572;7.838;2022-09-21T16:54:45;3.47;;;1.47;;
14191;SDS011;7177;48.572;7.838;2022-09-21T16:57:13;2.33;;;1.30;;
14191;SDS011;7177;48.572;7.838;2022-09-21T16:59:38;1.30;;;1.20;;
14191;SDS011;7177;48.572;7.838;2022-09-21T17:02:04;3.80;;;2.00;;
14191;SDS011;7177;48.572;7.838;2022-09-21T17:04:32;2.43;;;1.50;;
14191;SDS011;7177;48.572;7.838;2022-09-21T17:06:58;2.23;;;1.37;;
14191;SDS011;7177;48.572;7.838;2022-09-21T17:09:26;2.67;;;1.60;;
14191;SDS011;7177;48.572;7.838;2022-09-21T17:11:57;2.00;;;1.20;;
14191;SDS011;7177;48.572;7.838;2022-09-21T17:14:25;2.53;;;1.60;;
14191;SDS011;7177;48.572;7.838;2022-09-21T17:16:58;3.23;;;1.33;;
14191;SDS011;7177;48.572;7.838;2022-09-21T17:19:25;3.67;;;2.17;;
14191;SDS011;7177;48.572;7.838;2022-09-21T17:21:50;1.70;;;1.40;;
14191;SDS011;7177;48.572;7.838;2022-09-21T17:24:16;4.03;;;1.57;;
14191;SDS011;7177;48.572;7.838;2022-09-21T17:26:43;2.67;;;1.97;;
14191;SDS011;7177;48.572;7.838;2022-09-21T17:29:18;2.93;;;1.40;;
14191;SDS011;7177;48.572;7.838;2022-09-21T17:31:47;2.23;;;1.30;;
14191;SDS011;7177;48.572;7.838;2022-09-21T17:34:19;3.47;;;1.30;;
14191;SDS011;7177;48.572;7.838;2022-09-21T17:36:47;2.13;;;1.57;;
14191;SDS011;7177;48.572;7.838;2022-09-21T17:39:13;3.50;;;1.40;;
14191;SDS011;7177;48.572;7.838;2022-09-21T17:41:42;4.83;;;1.53;;
14191;SDS011;7177;48.572;7.838;2022-09-21T17:46:45;3.80;;;1.47;;
14191;SDS011;7177;48.572;7.838;2022-09-21T17:49:22;1.43;;;1.20;;
14191;SDS011;7177;48.572;7.838;2022-09-21T17:51:48;1.90;;;1.43;;
14191;SDS011;7177;48.572;7.838;2022-09-21T17:54:33;16.40;;;8.77;;
14191;SDS011;7177;48.572;7.838;2022-09-21T17:57:05;5.23;;;1.90;;
14191;SDS011;7177;48.572;7.838;2022-09-21T17:59:42;2.03;;;1.80;;
14191;SDS011;7177;48.572;7.838;2022-09-21T18:02:20;2.43;;;2.10;;
14191;SDS011;7177;48.572;7.838;2022-09-21T18:04:48;3.93;;;2.53;;
14191;SDS011;7177;48.572;7.838;2022-09-21T18:07:17;5.73;;;2.87;;
14191;SDS011;7177;48.572;7.838;2022-09-21T18:09:43;4.10;;;3.03;;
14191;SDS011;7177;48.572;7.838;2022-09-21T18:18:01;4.57;;;2.80;;
14191;SDS011;7177;48.572;7.838;2022-09-21T18:20:46;4.63;;;3.30;;
14191;SDS011;7177;48.572;7.838;2022-09-21T18:26:07;3.53;;;2.13;;
14191;SDS011;7177;48.572;7.838;2022-09-21T18:28:41;3.70;;;2.40;;
14191;SDS011;7177;48.572;7.838;2022-09-21T18:34:09;3.10;;;1.93;;
14191;SDS011;7177;48.572;7.838;2022-09-21T18:39:36;3.87;;;2.03;;